createdAt,value
2018-09-25T16:00:59.813Z,0.70
2018-09-25T16:03:33.467Z,0.70
2018-09-25T16:06:07.193Z,0.70
2018-09-25T16:08:40.821Z,0.63
2018-09-25T16:11:14.387Z,0.53
2018-09-25T16:13:48.049Z,0.50
2018-09-25T16:16:21.671Z,1.27
2018-09-25T16:18:55.310Z,0.70
2018-09-25T16:21:28.865Z,0.53
2018-09-25T16:24:02.464Z,1.23
2018-09-25T16:26:36.043Z,0.87
2018-09-25T16:29:09.648Z,0.50
2018-09-25T16:31:50.213Z,0.80
2018-09-25T16:34:23.768Z,0.90
2018-09-25T16:36:57.183Z,0.80
2018-09-25T16:39:30.818Z,0.40
2018-09-25T16:42:04.250Z,0.60
2018-09-25T16:44:37.676Z,0.50
2018-09-25T16:47:11.327Z,0.53
2018-09-25T16:49:44.993Z,1.07
2018-09-25T16:52:18.632Z,0.57
2018-09-25T16:54:52.092Z,0.50
2018-09-25T16:57:25.492Z,0.57
2018-09-25T16:59:59.158Z,0.73
2018-09-25T17:02:32.554Z,0.60
2018-09-25T17:05:06.237Z,0.90
2018-09-25T17:07:40.006Z,1.37
2018-09-25T17:10:13.635Z,0.70
2018-09-25T17:12:53.928Z,1.00
2018-09-25T17:15:27.567Z,0.67
2018-09-25T17:18:01.099Z,0.50
2018-09-25T17:20:34.708Z,0.63
2018-09-25T17:23:08.228Z,0.83
2018-09-25T17:25:41.907Z,0.70
2018-09-25T17:28:15.569Z,0.93
2018-09-25T17:30:49.081Z,1.00
2018-09-25T17:33:22.664Z,0.67
2018-09-25T17:35:56.285Z,0.63
2018-09-25T17:38:29.861Z,0.73
2018-09-25T17:41:03.373Z,0.50
2018-09-25T17:43:37.040Z,0.90
2018-09-25T17:46:10.640Z,0.70
2018-09-25T17:48:44.356Z,0.83
2018-09-25T17:51:17.994Z,0.83
2018-09-25T17:53:51.520Z,0.80
2018-09-25T17:56:24.859Z,0.57
2018-09-25T17:58:58.323Z,1.77
2018-09-25T18:01:31.785Z,0.60
2018-09-25T18:04:05.393Z,0.57
2018-09-25T18:06:39.021Z,0.50
2018-09-25T18:09:14.049Z,1.23
2018-09-25T18:11:47.736Z,0.60
2018-09-25T18:14:21.343Z,2.07
2018-09-25T18:16:54.868Z,0.77
2018-09-25T18:19:28.753Z,0.80
2018-09-25T18:22:02.174Z,1.10
2018-09-25T18:24:35.725Z,1.00
2018-09-25T18:27:09.415Z,0.77
2018-09-25T18:29:42.914Z,0.80
2018-09-25T18:32:16.449Z,1.00
2018-09-25T18:34:50.053Z,1.07
2018-09-25T18:37:23.661Z,1.40
2018-09-25T18:39:57.326Z,1.33
2018-09-25T18:42:30.903Z,1.17
2018-09-25T18:45:04.428Z,2.07
2018-09-25T18:47:37.915Z,1.00
2018-09-25T18:50:11.501Z,1.33
2018-09-25T18:52:44.946Z,1.60
2018-09-25T18:55:18.604Z,1.23
2018-09-25T18:57:52.319Z,1.40
2018-09-25T19:00:25.913Z,1.80
2018-09-25T19:02:59.407Z,2.13
2018-09-25T19:05:33.036Z,2.40
2018-09-25T19:08:06.418Z,1.53
2018-09-25T19:10:40.039Z,1.60
2018-09-25T19:13:13.521Z,2.00
2018-09-25T19:15:47.112Z,2.27
2018-09-25T19:18:20.628Z,1.60
2018-09-25T19:20:54.280Z,1.70
2018-09-25T19:23:27.864Z,1.37
2018-09-25T19:26:01.259Z,1.97
2018-09-25T19:28:34.878Z,1.73
2018-09-25T19:31:08.253Z,1.43
2018-09-25T19:33:42.472Z,1.20
2018-09-25T19:36:16.079Z,1.20
2018-09-25T19:38:49.596Z,1.60
2018-09-25T19:41:23.264Z,1.47
2018-09-25T19:43:56.827Z,1.90
2018-09-25T19:46:30.529Z,1.60
2018-09-25T19:49:04.213Z,1.50
2018-09-25T19:51:37.886Z,1.50
2018-09-25T19:54:11.574Z,2.10
2018-09-25T19:56:45.152Z,2.07
2018-09-25T19:59:18.476Z,3.53
2018-09-25T20:01:52.112Z,2.20
2018-09-25T20:04:25.793Z,3.10
2018-09-25T20:06:59.205Z,1.90
2018-09-25T20:09:32.781Z,1.87
2018-09-25T20:12:06.279Z,2.30
2018-09-25T20:14:39.977Z,2.30
2018-09-25T20:17:13.636Z,2.20
2018-09-25T20:19:47.296Z,1.60
2018-09-25T20:22:20.756Z,1.67
2018-09-25T20:24:54.317Z,1.70
2018-09-25T20:27:28.080Z,1.80
2018-09-25T20:30:01.488Z,1.47
2018-09-25T20:32:34.851Z,2.10
2018-09-25T20:35:08.548Z,2.40
2018-09-25T20:37:42.201Z,1.90
2018-09-25T20:40:15.721Z,2.20
2018-09-25T20:42:49.404Z,1.77
2018-09-25T20:45:22.894Z,2.20
2018-09-25T20:47:56.533Z,2.33
2018-09-25T20:50:30.103Z,2.30
2018-09-25T20:53:03.723Z,2.40
2018-09-25T20:55:37.172Z,3.33
2018-09-25T20:58:10.788Z,2.83
2018-09-25T21:00:44.352Z,2.83
2018-09-25T21:03:18.080Z,2.80
2018-09-25T21:05:51.705Z,2.60
2018-09-25T21:08:25.238Z,2.03
2018-09-25T21:10:58.692Z,2.30
2018-09-25T21:13:32.389Z,2.30
2018-09-25T21:16:05.932Z,2.37
2018-09-25T21:18:39.616Z,2.30
2018-09-25T21:21:13.231Z,2.77
2018-09-25T21:23:46.835Z,2.47
2018-09-25T21:26:20.448Z,3.07
2018-09-25T21:28:53.924Z,3.00
2018-09-25T21:31:27.337Z,3.57
2018-09-25T21:34:00.934Z,2.60
2018-09-25T21:36:34.340Z,3.00
2018-09-25T21:39:08.339Z,3.23
2018-09-25T21:41:41.794Z,2.90
2018-09-25T21:44:15.424Z,2.93
2018-09-25T21:46:49.037Z,2.77
2018-09-25T21:49:22.522Z,2.00
2018-09-25T21:51:56.149Z,2.40
2018-09-25T21:54:29.629Z,2.13
2018-09-25T21:57:03.356Z,2.60
2018-09-25T21:59:36.684Z,3.07
